Time;durP1;ratioP1;P1;durP2;ratioP2;P2;SDS_P1;SDS_P2;PMS_P1;PMS_P2;Temp;Humidity;BMP_temperature;BMP_pressure;BME280_temperature;BME280_humidity;BME280_pressure;Samples;Min_cycle;Max_cycle;Signal;HPM_P1;HPM_P2
2022/11/18 00:01:59;;;;;;;19.60;11.60;;;7.50;99.90;;;;;;5195330;28;20029;-61
2022/11/18 00:04:30;;;;;;;21.65;11.95;;;7.50;99.90;;;;;;5203250;28;20059;-63
2022/11/18 00:07:02;;;;;;;25.92;11.00;;;7.60;99.90;;;;;;5210850;28;20044;-62
2022/11/18 00:09:35;;;;;;;19.48;9.90;;;7.70;99.90;;;;;;5234491;28;20036;-63
2022/11/18 00:15:00;;;;;;;19.23;11.35;;;7.80;99.90;;;;;;5228498;28;20032;-61
2022/11/18 00:17:33;;;;;;;20.70;9.82;;;7.90;99.90;;;;;;5230329;28;20037;-61
2022/11/18 00:20:07;;;;;;;26.10;10.35;;;7.90;99.90;;;;;;5206544;28;20029;-62
2022/11/18 00:22:39;;;;;;;;;;;7.80;99.90;;;;;;5212281;28;20051;-62
2022/11/18 00:25:15;;;;;;;16.00;10.57;;;7.90;99.90;;;;;;5212929;28;19915;-62
2022/11/18 00:27:46;;;;;;;19.50;10.48;;;7.80;99.90;;;;;;5196037;28;20051;-63
2022/11/18 00:30:23;;;;;;;18.30;10.57;;;7.80;99.90;;;;;;5213583;28;20100;-62
2022/11/18 00:32:58;;;;;;;19.00;10.93;;;7.70;99.90;;;;;;5203637;28;20032;-60
2022/11/18 00:35:29;;;;;;;19.33;11.30;;;7.60;99.90;;;;;;5212073;28;20178;-60
2022/11/18 00:38:06;;;;;;;20.75;11.25;;;7.50;99.90;;;;;;5231153;28;20033;-65
2022/11/18 00:40:43;;;;;;;22.08;11.20;;;7.40;99.90;;;;;;5212216;28;20221;-60
2022/11/18 00:43:14;;;;;;;24.48;11.68;;;7.50;99.90;;;;;;5192916;28;20045;-60
2022/11/18 00:45:48;;;;;;;20.65;11.13;;;7.60;99.90;;;;;;5207608;28;20045;-63
2022/11/18 00:48:23;;;;;;;27.77;12.65;;;7.70;99.90;;;;;;5211626;28;20036;-60
2022/11/18 00:51:06;;;;;;;26.42;11.82;;;7.60;99.90;;;;;;5196216;28;20273;-62
2022/11/18 00:53:42;;;;;;;27.08;12.95;;;7.40;99.90;;;;;;5210186;28;20059;-61
2022/11/18 00:56:16;;;;;;;28.67;13.00;;;7.50;99.90;;;;;;5178470;28;20037;-62
2022/11/18 00:58:53;;;;;;;23.77;12.23;;;7.50;99.90;;;;;;5210174;28;20037;-62
2022/11/18 01:01:27;;;;;;;29.70;12.00;;;7.60;99.90;;;;;;5302829;23;20031;-62
2022/11/18 01:03:59;;;;;;;25.30;13.07;;;7.70;99.90;;;;;;5150463;28;20546;-62
2022/11/18 01:06:30;;;;;;;26.92;12.00;;;7.80;99.90;;;;;;5158060;28;20054;-62
2022/11/18 01:09:04;;;;;;;26.55;11.95;;;7.70;99.90;;;;;;5134629;28;20038;-65
2022/11/18 01:14:25;;;;;;;26.45;12.23;;;7.80;99.90;;;;;;5150866;28;20038;-61
2022/11/18 01:17:00;;;;;;;23.92;11.90;;;7.70;99.90;;;;;;5150596;28;20034;-62
2022/11/18 01:19:34;;;;;;;29.27;12.98;;;7.50;99.90;;;;;;5151201;28;20049;-64
2022/11/18 01:22:16;;;;;;;36.15;13.98;;;7.60;99.90;;;;;;5149862;28;20026;-61
2022/11/18 01:24:50;;;;;;;30.35;13.50;;;7.50;99.90;;;;;;5134267;28;20049;-62
2022/11/18 01:27:23;;;;;;;33.37;13.23;;;7.30;99.90;;;;;;5168187;28;20040;-62
2022/11/18 01:29:57;;;;;;;31.52;13.90;;;7.40;99.90;;;;;;5168262;28;20048;-63
2022/11/18 01:32:28;;;;;;;28.93;14.77;;;7.50;99.90;;;;;;5177029;28;20038;-62
2022/11/18 01:35:00;;;;;;;37.70;15.05;;;7.40;99.90;;;;;;5151044;28;20278;-63
2022/11/18 01:37:32;;;;;;;30.27;13.95;;;7.20;99.90;;;;;;5167173;28;20038;-64
2022/11/18 01:40:05;;;;;;;27.17;13.93;;;7.10;99.90;;;;;;5151030;28;20036;-62
2022/11/18 01:42:44;;;;;;;32.60;14.85;;;7.00;99.90;;;;;;5144967;28;20046;-61
2022/11/18 01:45:19;;;;;;;26.00;12.30;;;6.90;99.90;;;;;;5165485;28;20042;-61
2022/11/18 01:48:21;;;;;;;29.08;12.90;;;7.00;99.90;;;;;;5134431;28;20049;-61
2022/11/18 01:51:03;;;;;;;27.35;14.10;;;7.00;99.90;;;;;;5151061;28;20035;-61
2022/11/18 01:53:41;;;;;;;29.17;13.40;;;7.10;99.90;;;;;;5134144;28;20045;-61
2022/11/18 01:56:27;;;;;;;31.25;13.77;;;7.10;99.90;;;;;;5134342;28;20034;-61
2022/11/18 01:59:05;;;;;;;34.55;13.77;;;7.00;99.90;;;;;;5168661;28;20038;-64
2022/11/18 02:01:37;;;;;;;28.88;13.88;;;7.10;99.90;;;;;;5157875;28;20050;-62
2022/11/18 02:04:11;;;;;;;29.65;12.75;;;7.10;99.90;;;;;;5171064;28;20068;-60
2022/11/18 02:06:44;;;;;;;29.13;13.65;;;7.10;99.90;;;;;;5129624;28;20050;-61
2022/11/18 02:09:20;;;;;;;29.90;12.95;;;7.10;99.90;;;;;;5176570;28;20041;-62
2022/11/18 02:11:54;;;;;;;34.20;14.57;;;7.00;99.90;;;;;;5135694;28;20076;-61
2022/11/18 02:14:33;;;;;;;30.20;13.68;;;7.00;99.90;;;;;;5183327;28;20357;-60
2022/11/18 02:17:15;;;;;;;37.10;15.23;;;7.10;99.90;;;;;;5170671;28;20034;-61
2022/11/18 02:19:49;;;;;;;35.97;14.05;;;7.10;99.90;;;;;;5169720;28;20036;-63
2022/11/18 02:22:36;;;;;;;29.45;14.90;;;6.90;99.90;;;;;;5154749;28;20334;-62
2022/11/18 02:25:28;;;;;;;33.00;12.82;;;7.00;99.90;;;;;;5192408;28;20032;-61
2022/11/18 02:28:22;;;;;;;32.13;13.50;;;7.00;99.90;;;;;;5191797;28;20045;-63
2022/11/18 02:31:20;;;;;;;32.58;14.77;;;7.10;99.90;;;;;;5183720;28;20044;-61
2022/11/18 02:33:59;;;;;;;26.42;13.43;;;7.20;99.90;;;;;;5157825;28;20046;-63
2022/11/18 02:36:41;;;;;;;36.33;13.63;;;7.30;99.90;;;;;;5154642;28;20026;-62
2022/11/18 02:39:21;;;;;;;32.35;14.50;;;7.30;99.90;;;;;;5137533;28;20060;-63
2022/11/18 02:41:57;;;;;;;36.55;15.25;;;7.30;99.90;;;;;;5173966;28;20037;-62
2022/11/18 02:44:31;;;;;;;40.17;16.77;;;7.40;99.90;;;;;;5157605;28;20231;-64
2022/11/18 02:47:08;;;;;;;33.28;13.05;;;7.40;99.90;;;;;;5158127;28;20048;-63
2022/11/18 02:49:55;;;;;;;31.13;13.13;;;7.40;99.90;;;;;;5173272;28;20026;-61
2022/11/18 02:52:32;;;;;;;30.08;12.93;;;7.40;99.90;;;;;;5167043;28;20042;-62
2022/11/18 02:55:07;;;;;;;37.97;14.60;;;7.40;99.90;;;;;;5154065;28;20044;-64
2022/11/18 02:57:41;;;;;;;32.70;14.52;;;7.40;99.90;;;;;;5182141;28;20029;-64
2022/11/18 03:00:18;;;;;;;33.72;14.50;;;7.40;99.90;;;;;;5156633;28;20038;-63
2022/11/18 03:02:50;;;;;;;34.22;14.30;;;7.50;99.90;;;;;;5157340;28;20042;-63
2022/11/18 03:05:41;;;;;;;27.98;13.23;;;7.40;99.90;;;;;;5148486;28;20049;-63
2022/11/18 03:08:20;;;;;;;31.30;13.98;;;7.40;99.90;;;;;;5172766;28;20032;-62
2022/11/18 03:11:16;;;;;;;34.42;13.45;;;7.30;99.90;;;;;;5173128;28;20042;-63
2022/11/18 03:14:23;;;;;;;36.83;14.55;;;7.20;99.90;;;;;;5157688;28;20025;-62
2022/11/18 03:17:27;;;;;;;37.70;15.00;;;7.20;99.90;;;;;;5173434;28;20034;-64
2022/11/18 03:20:16;;;;;;;31.17;13.77;;;7.20;99.90;;;;;;5155606;28;20358;-63
2022/11/18 03:22:51;;;;;;;33.97;14.80;;;7.10;99.90;;;;;;5190969;28;20040;-63
2022/11/18 03:25:33;;;;;;;33.42;15.13;;;7.20;99.90;;;;;;5173048;28;20038;-62
2022/11/18 03:28:33;;;;;;;30.63;13.00;;;7.20;99.90;;;;;;5173420;28;20037;-63
2022/11/18 03:31:09;;;;;;;32.67;13.13;;;7.20;99.90;;;;;;5184441;28;20030;-62
2022/11/18 03:34:07;;;;;;;30.17;13.93;;;7.20;99.90;;;;;;5175825;28;20036;-61
2022/11/18 03:36:46;;;;;;;36.60;14.68;;;7.30;99.90;;;;;;5166474;28;20044;-62
2022/11/18 03:39:20;;;;;;;33.55;14.15;;;7.40;99.90;;;;;;5170703;28;20038;-62
2022/11/18 03:41:55;;;;;;;;;;;7.30;99.90;;;;;;5169831;28;20033;-62
2022/11/18 03:44:36;;;;;;;28.48;14.73;;;7.20;99.90;;;;;;5172173;28;19910;-61
2022/11/18 03:47:21;;;;;;;30.15;14.63;;;7.10;99.90;;;;;;5156517;28;20030;-61
2022/11/18 03:50:00;;;;;;;28.05;14.55;;;7.20;99.90;;;;;;5172251;28;20034;-61
2022/11/18 03:52:35;;;;;;;29.00;14.60;;;7.20;99.90;;;;;;5190953;28;20033;-62
2022/11/18 03:55:50;;;;;;;26.02;14.65;;;7.20;99.90;;;;;;5147563;28;20039;-60
2022/11/18 03:58:30;;;;;;;32.70;15.18;;;7.20;99.90;;;;;;5099936;29;20031;-62
2022/11/18 04:01:20;;;;;;;30.02;14.00;;;7.10;99.90;;;;;;5086996;29;20032;-62
2022/11/18 04:03:53;;;;;;;31.63;13.27;;;6.90;99.90;;;;;;5070840;29;20115;-62
2022/11/18 04:06:45;;;;;;;29.85;15.13;;;7.00;99.90;;;;;;5078384;29;20138;-62
2022/11/18 04:09:26;;;;;;;25.60;13.45;;;6.80;99.90;;;;;;5087532;29;20048;-63
2022/11/18 04:12:06;;;;;;;30.02;14.07;;;6.90;99.90;;;;;;5086893;29;20048;-63
2022/11/18 04:14:43;;;;;;;27.13;14.63;;;6.80;99.90;;;;;;5055808;29;20044;-62
2022/11/18 04:17:22;;;;;;;27.50;13.13;;;6.80;99.90;;;;;;5087319;29;20163;-62
2022/11/18 04:19:55;;;;;;;31.42;13.30;;;6.80;99.90;;;;;;5105337;29;20147;-61
2022/11/18 04:22:31;;;;;;;24.70;12.40;;;6.80;99.90;;;;;;5091383;29;20039;-62
2022/11/18 04:25:08;;;;;;;32.95;14.77;;;6.80;99.90;;;;;;5072497;29;20040;-62
2022/11/18 04:27:39;;;;;;;34.80;14.52;;;6.80;99.90;;;;;;5055318;29;20044;-62
2022/11/18 04:30:13;;;;;;;26.85;13.82;;;6.90;99.90;;;;;;5149084;28;20044;-63
2022/11/18 04:32:44;;;;;;;25.05;12.80;;;6.80;99.90;;;;;;5168396;28;20030;-62
2022/11/18 04:35:19;;;;;;;23.10;13.32;;;6.70;99.90;;;;;;5180207;28;20037;-63
2022/11/18 04:37:53;;;;;;;29.15;14.20;;;6.70;99.90;;;;;;5171870;28;20041;-62
2022/11/18 04:40:24;;;;;;;22.25;11.70;;;6.80;99.90;;;;;;5188474;28;20038;-62
2022/11/18 04:42:56;;;;;;;22.00;11.55;;;6.90;99.90;;;;;;5171869;28;20025;-62
2022/11/18 04:45:32;;;;;;;25.02;12.75;;;7.00;99.90;;;;;;5170545;28;20034;-61
2022/11/18 04:48:04;;;;;;;23.23;12.25;;;7.00;99.90;;;;;;5171210;28;20516;-64
2022/11/18 04:50:35;;;;;;;24.23;12.30;;;6.90;99.90;;;;;;5172515;28;20041;-64
2022/11/18 04:53:06;;;;;;;23.35;11.93;;;6.90;99.90;;;;;;5192231;28;20513;-61
2022/11/18 04:55:40;;;;;;;21.20;12.27;;;6.90;99.90;;;;;;5191253;28;20044;-62
2022/11/18 04:58:11;;;;;;;25.55;12.45;;;6.90;99.90;;;;;;5167790;28;20037;-63
2022/11/18 05:00:43;;;;;;;20.95;11.70;;;7.10;99.90;;;;;;5187920;28;20330;-61
2022/11/18 05:03:14;;;;;;;25.65;12.95;;;7.10;99.90;;;;;;5151082;28;20423;-61
2022/11/18 05:05:48;;;;;;;25.10;12.00;;;7.10;99.90;;;;;;5159327;28;20052;-63
2022/11/18 05:08:19;;;;;;;29.23;13.70;;;7.20;99.90;;;;;;5167824;28;20030;-61
2022/11/18 05:12:47;;;;;;;24.50;12.65;;;7.20;99.90;;;;;;5171491;28;20047;-61
2022/11/18 05:13:41;;;;;;;22.75;11.15;;;7.20;99.90;;;;;;5165043;28;20034;-62
2022/11/18 05:16:15;;;;;;;20.85;10.75;;;7.20;99.90;;;;;;5182640;28;20030;-63
2022/11/18 05:18:46;;;;;;;24.25;12.18;;;7.20;99.90;;;;;;5171899;28;20041;-62
2022/11/18 05:21:18;;;;;;;25.73;12.32;;;7.20;99.90;;;;;;5175353;28;20028;-64
2022/11/18 05:23:52;;;;;;;22.23;12.50;;;7.20;99.90;;;;;;5154538;28;20034;-60
2022/11/18 05:26:26;;;;;;;20.60;12.32;;;7.20;99.90;;;;;;5189006;28;20028;-61
2022/11/18 05:28:57;;;;;;;23.05;13.15;;;7.20;99.90;;;;;;5154342;28;20042;-62
2022/11/18 05:31:34;;;;;;;24.75;12.00;;;7.10;99.90;;;;;;5168044;28;20040;-62
2022/11/18 05:34:10;;;;;;;25.40;12.75;;;7.10;99.90;;;;;;5150184;28;20053;-62
2022/11/18 05:36:45;;;;;;;22.20;12.38;;;7.00;99.90;;;;;;5158928;28;20349;-63
2022/11/18 05:39:19;;;;;;;22.83;13.18;;;6.90;99.90;;;;;;5137831;28;20247;-61
2022/11/18 05:44:44;;;;;;;29.17;13.75;;;6.80;99.90;;;;;;5185125;28;20426;-64
2022/11/18 05:47:15;;;;;;;26.83;13.20;;;6.80;99.90;;;;;;5170565;28;20044;-62
2022/11/18 05:49:48;;;;;;;28.05;14.10;;;6.80;99.90;;;;;;5154029;28;20240;-62
2022/11/18 05:52:19;;;;;;;27.52;13.95;;;6.80;99.90;;;;;;5151092;28;20045;-62
2022/11/18 05:54:51;;;;;;;32.20;13.57;;;6.80;99.90;;;;;;5153369;28;20046;-65
2022/11/18 05:57:25;;;;;;;27.67;13.00;;;6.70;99.90;;;;;;5179371;28;20051;-62
2022/11/18 05:59:58;;;;;;;26.40;12.60;;;6.60;99.90;;;;;;5150478;28;20503;-62
2022/11/18 06:02:30;;;;;;;400.02;123.80;;;6.70;99.90;;;;;;5148612;28;20053;-62
2022/11/18 06:05:04;;;;;;;95.05;42.63;;;6.70;99.90;;;;;;5156463;28;20046;-64
2022/11/18 06:07:41;;;;;;;50.78;28.23;;;6.80;99.90;;;;;;5174024;28;20046;-62
2022/11/18 06:10:39;;;;;;;84.18;38.97;;;6.90;99.90;;;;;;5186603;28;20022;-62
2022/11/18 06:13:23;;;;;;;43.53;21.80;;;6.70;99.90;;;;;;5146858;28;20064;-61
2022/11/18 06:15:55;;;;;;;37.80;24.40;;;6.80;99.90;;;;;;5160584;28;20037;-61
2022/11/18 06:18:34;;;;;;;26.88;13.52;;;6.70;99.90;;;;;;5159415;28;20044;-63
2022/11/18 06:21:14;;;;;;;33.47;21.48;;;6.60;99.90;;;;;;5173808;28;20022;-65
2022/11/18 06:23:45;;;;;;;65.03;51.72;;;6.60;99.90;;;;;;5157975;28;20055;-61
2022/11/18 06:26:17;;;;;;;32.72;21.27;;;6.60;99.90;;;;;;5172161;28;20032;-63
2022/11/18 06:28:50;;;;;;;25.58;13.38;;;6.60;99.90;;;;;;5164129;28;20034;-62
2022/11/18 06:31:26;;;;;;;27.40;17.30;;;6.70;99.90;;;;;;5158971;28;20034;-63
2022/11/18 06:34:01;;;;;;;22.77;13.38;;;6.70;99.90;;;;;;5164260;28;20286;-63
2022/11/18 06:36:35;;;;;;;22.88;12.23;;;6.70;99.90;;;;;;5149404;28;20042;-63
2022/11/18 06:39:09;;;;;;;25.07;14.33;;;6.70;99.90;;;;;;5163888;28;20040;-62
2022/11/18 06:41:42;;;;;;;186.15;152.18;;;6.80;99.90;;;;;;5146440;28;20280;-61
2022/11/18 06:44:15;;;;;;;33.55;18.95;;;6.70;99.90;;;;;;5149443;28;20230;-63
2022/11/18 06:46:56;;;;;;;25.15;12.82;;;6.80;99.90;;;;;;5185756;28;20040;-63
2022/11/18 06:49:27;;;;;;;25.70;13.93;;;6.80;99.90;;;;;;5161039;28;20046;-63
2022/11/18 06:51:58;;;;;;;25.17;14.18;;;6.90;99.90;;;;;;5141982;28;20050;-61
2022/11/18 06:54:36;;;;;;;27.73;12.18;;;7.00;99.90;;;;;;5153976;28;20427;-64
2022/11/18 06:57:11;;;;;;;26.45;11.88;;;7.10;99.90;;;;;;5162444;28;20029;-61
2022/11/18 06:59:45;;;;;;;27.75;15.18;;;7.00;99.90;;;;;;5145171;28;20038;-61
2022/11/18 07:02:20;;;;;;;36.80;19.40;;;7.10;99.90;;;;;;5161145;28;20045;-63
2022/11/18 07:04:53;;;;;;;26.38;14.15;;;7.10;99.90;;;;;;5137009;28;20062;-60
2022/11/18 07:07:27;;;;;;;30.60;17.45;;;7.10;99.90;;;;;;5157541;28;20030;-62
2022/11/18 07:09:58;;;;;;;23.27;11.75;;;7.20;99.90;;;;;;5155611;28;20056;-63
2022/11/18 07:12:30;;;;;;;30.13;16.77;;;7.30;99.90;;;;;;5187823;28;20087;-62
2022/11/18 07:15:03;;;;;;;28.05;16.98;;;7.40;99.90;;;;;;5155575;28;20041;-62
2022/11/18 07:17:41;;;;;;;30.47;15.40;;;7.40;99.90;;;;;;5171500;28;20037;-64
2022/11/18 07:20:15;;;;;;;26.65;12.82;;;7.50;99.90;;;;;;5190377;28;20026;-61
2022/11/18 07:22:47;;;;;;;24.00;12.15;;;7.50;99.90;;;;;;5161441;28;20038;-63
2022/11/18 07:25:21;;;;;;;25.42;12.98;;;7.60;99.90;;;;;;5189853;28;20029;-63
2022/11/18 07:27:55;;;;;;;26.63;11.93;;;7.70;99.90;;;;;;5171549;28;20041;-61
2022/11/18 07:30:28;;;;;;;21.95;12.02;;;7.70;99.90;;;;;;5158242;28;20048;-62
2022/11/18 07:33:02;;;;;;;17.20;10.18;;;7.60;99.90;;;;;;5162595;28;20048;-63
2022/11/18 07:35:33;;;;;;;20.88;9.63;;;7.40;99.90;;;;;;5155584;28;20049;-63
2022/11/18 07:38:05;;;;;;;18.45;9.52;;;7.50;99.90;;;;;;5170649;28;20038;-61
2022/11/18 07:40:36;;;;;;;22.15;10.07;;;7.70;99.90;;;;;;5153818;28;20060;-62
2022/11/18 07:43:09;;;;;;;20.73;10.55;;;7.80;99.90;;;;;;5168756;28;20276;-61
2022/11/18 07:45:43;;;;;;;19.00;10.73;;;7.80;99.90;;;;;;5151400;28;20040;-63
2022/11/18 07:48:15;;;;;;;23.92;14.77;;;7.80;99.90;;;;;;5171440;28;20044;-60
2022/11/18 07:50:48;;;;;;;19.80;11.10;;;8.00;99.90;;;;;;5185445;28;20045;-63
2022/11/18 07:53:20;;;;;;;22.23;12.32;;;8.00;99.90;;;;;;5187875;28;20025;-64
2022/11/18 07:55:53;;;;;;;21.88;11.40;;;8.10;99.90;;;;;;5184992;28;20048;-61
2022/11/18 07:58:27;;;;;;;20.45;10.10;;;8.20;99.90;;;;;;5193812;28;20025;-61
2022/11/18 08:01:05;;;;;;;21.30;11.10;;;8.20;99.90;;;;;;5216905;28;20033;-60
2022/11/18 08:03:40;;;;;;;36.08;25.30;;;8.30;99.90;;;;;;5195746;28;20037;-63
2022/11/18 08:06:17;;;;;;;17.95;11.45;;;8.50;99.90;;;;;;5150279;28;20046;-63
2022/11/18 08:08:51;;;;;;;18.55;10.18;;;8.50;99.90;;;;;;5200651;28;20036;-62
2022/11/18 08:11:22;;;;;;;18.23;9.50;;;8.30;99.90;;;;;;5211720;28;20220;-61
2022/11/18 08:13:55;;;;;;;18.35;11.05;;;8.20;99.90;;;;;;5196155;28;20032;-60
2022/11/18 08:16:32;;;;;;;148.30;109.07;;;8.10;99.90;;;;;;5209537;28;20253;-63
2022/11/18 08:19:04;;;;;;;14.35;8.10;;;8.10;99.90;;;;;;5192057;28;20033;-62
2022/11/18 08:21:40;;;;;;;39.47;25.55;;;8.00;99.90;;;;;;5164641;28;20048;-61
2022/11/18 08:24:11;;;;;;;21.40;12.18;;;8.00;99.90;;;;;;5174586;28;20289;-62
2022/11/18 08:26:47;;;;;;;374.40;262.20;;;8.00;99.90;;;;;;5157339;28;20056;-61
2022/11/18 08:29:22;;;;;;;21.40;13.38;;;7.90;99.90;;;;;;5171532;28;20042;-61
2022/11/18 08:31:55;;;;;;;65.45;44.45;;;8.10;99.90;;;;;;5191245;28;20056;-62
2022/11/18 08:34:30;;;;;;;16.63;8.93;;;8.20;99.90;;;;;;5192750;28;20038;-61
2022/11/18 08:37:06;;;;;;;94.55;71.45;;;8.20;99.90;;;;;;5192067;28;20014;-62
2022/11/18 08:39:37;;;;;;;61.20;42.63;;;8.10;99.90;;;;;;5189338;28;20037;-61
2022/11/18 08:42:09;;;;;;;91.15;66.85;;;8.00;99.90;;;;;;5186533;28;20034;-61
2022/11/18 08:44:45;;;;;;;17.80;10.57;;;8.20;99.90;;;;;;5158842;28;20040;-61
2022/11/18 08:47:19;;;;;;;31.13;21.50;;;8.20;99.90;;;;;;5171711;28;20328;-62
2022/11/18 08:49:50;;;;;;;14.50;9.87;;;8.20;99.90;;;;;;5181974;28;20046;-62
2022/11/18 08:52:21;;;;;;;21.50;13.88;;;8.20;99.90;;;;;;5178028;28;20045;-61
2022/11/18 08:54:52;;;;;;;28.20;16.75;;;8.10;99.90;;;;;;5176540;28;20030;-61
2022/11/18 08:57:31;;;;;;;272.02;192.52;;;7.90;99.90;;;;;;5173808;28;20042;-62
2022/11/18 09:00:07;;;;;;;46.63;30.38;;;7.80;99.90;;;;;;5177698;28;20033;-61
2022/11/18 09:02:41;;;;;;;14.57;8.32;;;7.80;99.90;;;;;;5167963;28;20041;-61
2022/11/18 09:05:12;;;;;;;63.90;40.40;;;7.90;99.90;;;;;;5162434;28;20050;-61
2022/11/18 09:07:43;;;;;;;86.55;56.75;;;8.10;99.90;;;;;;5189956;28;20040;-62
2022/11/18 09:10:20;;;;;;;76.85;51.45;;;8.10;99.90;;;;;;5211912;28;20033;-63
2022/11/18 09:12:53;;;;;;;75.90;49.92;;;8.10;99.90;;;;;;5181031;28;20090;-63
2022/11/18 09:15:25;;;;;;;99.45;62.63;;;8.00;99.90;;;;;;5160266;28;20045;-61
2022/11/18 09:18:02;;;;;;;247.35;162.50;;;7.80;99.90;;;;;;5156055;28;20042;-62
2022/11/18 09:20:34;;;;;;;195.77;133.25;;;7.80;99.90;;;;;;5191236;28;20025;-62
2022/11/18 09:23:07;;;;;;;161.02;99.43;;;7.70;99.90;;;;;;5179565;28;20225;-61
2022/11/18 09:25:45;;;;;;;19.08;12.20;;;7.80;99.90;;;;;;5171441;28;20045;-63
2022/11/18 09:28:16;;;;;;;88.50;57.45;;;7.90;99.90;;;;;;5157415;28;20036;-63
2022/11/18 09:30:51;;;;;;;10.15;6.43;;;8.00;99.90;;;;;;5191717;28;20326;-63
2022/11/18 09:33:25;;;;;;;40.60;36.15;;;8.10;99.90;;;;;;5151266;28;20230;-61
2022/11/18 09:35:59;;;;;;;46.67;36.30;;;8.30;99.90;;;;;;5160467;28;20038;-63
2022/11/18 09:38:34;;;;;;;42.45;32.20;;;8.50;99.90;;;;;;5177037;28;20040;-62
2022/11/18 09:41:10;;;;;;;13.35;9.80;;;8.60;99.90;;;;;;5173433;28;20032;-60
2022/11/18 09:44:03;;;;;;;25.45;17.52;;;8.50;99.90;;;;;;5190487;28;20109;-62
2022/11/18 09:47:03;;;;;;;29.02;20.35;;;8.40;99.90;;;;;;5173769;28;20226;-62
2022/11/18 09:49:42;;;;;;;38.35;27.63;;;8.30;99.90;;;;;;5187589;28;20051;-62
2022/11/18 09:52:19;;;;;;;17.17;8.90;;;8.20;99.90;;;;;;5168942;28;20388;-64
2022/11/18 09:54:51;;;;;;;121.95;83.30;;;8.30;99.90;;;;;;5205765;28;20515;-64
2022/11/18 09:57:39;;;;;;;17.50;11.98;;;8.30;99.90;;;;;;5153462;28;20049;-63
2022/11/18 10:00:15;;;;;;;17.88;12.30;;;8.40;99.90;;;;;;5150516;28;20034;-62
2022/11/18 10:03:08;;;;;;;19.83;10.75;;;8.50;99.90;;;;;;5189679;28;20022;-62
2022/11/18 10:06:02;;;;;;;15.25;8.75;;;8.60;99.90;;;;;;5189445;28;20064;-65
2022/11/18 10:08:51;;;;;;;17.77;9.75;;;8.80;99.90;;;;;;5186143;28;20337;-61
2022/11/18 10:11:31;;;;;;;31.60;20.85;;;8.80;99.90;;;;;;5154389;28;20258;-61
2022/11/18 10:14:32;;;;;;;61.97;45.38;;;8.70;99.90;;;;;;5188456;28;20040;-64
2022/11/18 10:17:30;;;;;;;31.38;21.88;;;8.50;99.90;;;;;;5187485;28;20036;-64
2022/11/18 10:20:10;;;;;;;32.00;24.25;;;8.60;99.90;;;;;;5155914;28;20034;-62
2022/11/18 10:22:47;;;;;;;28.95;18.08;;;8.80;99.90;;;;;;5156282;28;20038;-62
2022/11/18 10:25:21;;;;;;;22.33;13.05;;;8.80;99.90;;;;;;5156787;28;20040;-63
2022/11/18 10:27:54;;;;;;;14.15;10.20;;;8.90;99.90;;;;;;5178353;28;20395;-62
2022/11/18 10:30:28;;;;;;;17.92;11.32;;;9.00;99.90;;;;;;5160766;28;20046;-65
2022/11/18 10:33:21;;;;;;;7.35;5.13;;;9.10;99.90;;;;;;5164622;28;20044;-64
2022/11/18 10:36:15;;;;;;;18.33;9.40;;;9.00;99.90;;;;;;5137553;28;20030;-60
2022/11/18 10:38:47;;;;;;;6.13;3.40;;;9.00;99.90;;;;;;5146359;28;20040;-63
2022/11/18 10:41:22;;;;;;;2.50;1.92;;;8.90;99.90;;;;;;5136955;28;20046;-64
2022/11/18 10:43:56;;;;;;;6.30;4.03;;;9.00;99.90;;;;;;5189306;28;20034;-62
2022/11/18 10:46:32;;;;;;;3.15;1.63;;;9.20;99.90;;;;;;5197483;28;20207;-63
2022/11/18 10:49:09;;;;;;;2.45;2.25;;;9.20;99.90;;;;;;5158161;28;20332;-64
2022/11/18 10:51:51;;;;;;;5.30;4.82;;;9.30;99.90;;;;;;5187917;28;20051;-63
2022/11/18 10:54:27;;;;;;;1.50;1.40;;;9.30;99.90;;;;;;5176347;28;20029;-63
2022/11/18 10:57:18;;;;;;;0.93;0.90;;;9.40;99.90;;;;;;5195043;28;20038;-62
2022/11/18 10:59:58;;;;;;;1.23;1.10;;;9.40;99.90;;;;;;5191777;28;20029;-63
2022/11/18 11:02:40;;;;;;;1.15;0.90;;;9.50;99.90;;;;;;5174889;28;20033;-61
2022/11/18 11:05:27;;;;;;;1.13;1.00;;;9.50;99.90;;;;;;5166591;28;20227;-62
2022/11/18 11:08:16;;;;;;;0.98;0.93;;;9.60;99.90;;;;;;5175983;28;20048;-62
2022/11/18 11:11:02;;;;;;;18.55;14.25;;;9.60;99.90;;;;;;5180595;28;20064;-65
2022/11/18 11:13:39;;;;;;;2.20;2.00;;;9.70;99.90;;;;;;5190228;28;20036;-64
2022/11/18 11:16:17;;;;;;;5.75;4.68;;;9.70;99.90;;;;;;5192652;28;20029;-61
2022/11/18 11:18:55;;;;;;;6.15;4.25;;;9.70;99.90;;;;;;5158266;28;20052;-62
2022/11/18 11:21:29;;;;;;;101.82;61.40;;;9.60;99.90;;;;;;5159884;28;20038;-63
2022/11/18 11:24:02;;;;;;;;;;;9.60;99.90;;;;;;5157308;28;20037;-62
2022/11/18 11:26:35;;;;;;;9.00;6.50;;;9.50;99.90;;;;;;5150196;28;19910;-62
2022/11/18 11:29:30;;;;;;;5.20;4.10;;;9.50;99.90;;;;;;5171276;28;20060;-64
2022/11/18 11:32:30;;;;;;;75.07;50.13;;;9.50;99.90;;;;;;5160387;28;20033;-65
2022/11/18 11:35:24;;;;;;;27.80;18.58;;;9.60;99.90;;;;;;5165109;28;20762;-63
2022/11/18 11:38:23;;;;;;;19.63;14.18;;;9.50;99.90;;;;;;5196442;28;20040;-65
2022/11/18 11:41:22;;;;;;;1.27;1.17;;;9.60;99.90;;;;;;5196089;28;20396;-62
2022/11/18 11:44:16;;;;;;;20.00;14.82;;;9.60;99.90;;;;;;5155382;28;20266;-62
2022/11/18 11:49:53;;;;;;;38.75;27.70;;;9.70;99.90;;;;;;5195383;28;20037;-66
2022/11/18 11:52:36;;;;;;;10.15;7.20;;;9.50;99.90;;;;;;5177276;28;20051;-62
2022/11/18 11:55:32;;;;;;;2.55;2.00;;;9.30;99.90;;;;;;5174657;28;20308;-63
2022/11/18 11:58:15;;;;;;;6.95;4.93;;;9.20;99.90;;;;;;5174462;28;20346;-63
2022/11/18 12:01:09;;;;;;;117.82;71.22;;;9.10;99.90;;;;;;5159167;28;20039;-63
2022/11/18 12:03:49;;;;;;;96.37;58.07;;;9.10;99.90;;;;;;5178681;28;20030;-63
2022/11/18 12:06:23;;;;;;;14.35;10.57;;;9.10;99.90;;;;;;5153712;28;20614;-63
2022/11/18 12:09:20;;;;;;;5.18;3.83;;;9.10;99.90;;;;;;5165245;28;20230;-63
2022/11/18 12:12:33;;;;;;;10.13;7.95;;;9.20;99.90;;;;;;5181886;28;20014;-62
2022/11/18 12:15:29;;;;;;;3.45;2.75;;;9.20;99.90;;;;;;5183406;28;20030;-64
2022/11/18 12:18:28;;;;;;;19.13;12.85;;;9.40;99.90;;;;;;5174516;28;20029;-61
2022/11/18 12:20:59;;;;;;;16.65;11.80;;;9.40;99.90;;;;;;5184723;28;20030;-62
2022/11/18 12:23:35;;;;;;;24.92;16.77;;;9.50;99.90;;;;;;5183230;28;20034;-63
2022/11/18 12:26:10;;;;;;;1.98;1.45;;;9.50;99.90;;;;;;5169809;28;20225;-64
2022/11/18 12:28:47;;;;;;;3.50;2.42;;;9.60;99.90;;;;;;5147159;28;20052;-64
2022/11/18 12:31:21;;;;;;;10.95;8.15;;;9.50;99.90;;;;;;5147180;28;20049;-63
2022/11/18 12:34:02;;;;;;;3.45;1.52;;;9.60;99.90;;;;;;5144617;28;20034;-61
2022/11/18 12:36:41;;;;;;;18.08;13.23;;;9.50;99.90;;;;;;5182391;28;20227;-63
2022/11/18 12:39:27;;;;;;;40.97;21.15;;;9.50;99.90;;;;;;5147003;28;20030;-63
2022/11/18 12:44:53;;;;;;;7.70;6.93;;;9.60;99.90;;;;;;5182682;28;20307;-61
2022/11/18 12:47:40;;;;;;;4.57;3.95;;;9.70;99.90;;;;;;5161477;28;20368;-65
2022/11/18 12:50:14;;;;;;;2.47;1.58;;;9.80;99.90;;;;;;5163159;28;20424;-62
2022/11/18 12:52:46;;;;;;;;;;;9.70;99.90;;;;;;5170492;28;20035;-62
2022/11/18 12:55:28;;;;;;;1.70;1.30;;;9.80;99.90;;;;;;5177957;28;19913;-63
2022/11/18 12:58:00;;;;;;;38.50;26.40;;;9.90;99.90;;;;;;5170484;28;20029;-63
2022/11/18 13:00:50;;;;;;;14.57;9.05;;;9.90;99.90;;;;;;5184971;28;20060;-62
2022/11/18 13:03:27;;;;;;;11.52;7.57;;;9.80;99.90;;;;;;5190589;28;20033;-63
2022/11/18 13:06:03;;;;;;;4.15;3.67;;;9.70;99.90;;;;;;5152974;28;20068;-63
2022/11/18 13:08:36;;;;;;;103.28;55.78;;;9.60;99.90;;;;;;5144862;28;20039;-64
2022/11/18 13:17:54;;;;;;;2.88;2.20;;;9.40;99.90;;;;;;5186016;28;20235;-62
2022/11/18 13:20:34;;;;;;;6.40;4.10;;;9.30;99.90;;;;;;5181211;28;20026;-61
2022/11/18 13:26:11;;;;;;;2.05;1.88;;;9.20;99.90;;;;;;5164402;28;20034;-62
2022/11/18 13:29:02;;;;;;;2.92;2.40;;;9.10;99.90;;;;;;5179662;28;20026;-62
2022/11/18 13:32:02;;;;;;;4.65;3.50;;;9.10;99.90;;;;;;5143641;28;20298;-63
2022/11/18 13:34:44;;;;;;;3.83;2.78;;;9.10;99.90;;;;;;5179718;28;20037;-63
2022/11/18 13:37:26;;;;;;;23.52;17.25;;;9.10;99.90;;;;;;5148841;28;20270;-65
2022/11/18 13:40:00;;;;;;;5.20;3.75;;;9.10;99.90;;;;;;5162494;28;20322;-62
2022/11/18 13:42:33;;;;;;;161.73;125.07;;;9.10;99.90;;;;;;5166166;28;20034;-63
2022/11/18 13:45:07;;;;;;;156.68;127.65;;;9.20;99.90;;;;;;5147593;28;20283;-63
2022/11/18 13:47:48;;;;;;;7.70;6.18;;;9.20;99.90;;;;;;5168402;28;20036;-63
2022/11/18 13:50:49;;;;;;;29.63;19.77;;;9.10;99.90;;;;;;5190882;28;20040;-62
2022/11/18 13:53:42;;;;;;;34.85;21.08;;;9.00;99.90;;;;;;5168273;28;20041;-62
2022/11/18 13:56:29;;;;;;;67.85;46.72;;;9.00;99.90;;;;;;5169979;28;20315;-63
2022/11/18 13:59:04;;;;;;;50.08;44.75;;;8.90;99.90;;;;;;5178920;28;20040;-63
2022/11/18 14:01:37;;;;;;;;;;;8.70;99.90;;;;;;5182639;28;20327;-61